Time;durP1;ratioP1;P1;durP2;ratioP2;P2;SDS_P1;SDS_P2;PMS_P1;PMS_P2;Temp;Humidity;BMP_temperature;BMP_pressure;BME280_temperature;BME280_humidity;BME280_pressure;Samples;Min_cycle;Max_cycle;Signal;HPM_P1;HPM_P2
2023/04/25 00:01:05;;;;;;;11.30;4.00;;;;;;;7.14;86.70;99928.55;109171;1253;73771;-69
2023/04/25 00:03:32;;;;;;;11.40;3.90;;;;;;;7.13;86.89;99927.92;109214;1253;62244;-69
2023/04/25 00:06:01;;;;;;;12.90;4.50;;;;;;;7.13;86.94;99925.67;109301;1252;59162;-70
2023/04/25 00:08:31;;;;;;;12.10;5.20;;;;;;;7.13;87.54;99927.66;109274;1254;75148;-69
2023/04/25 00:10:59;;;;;;;11.80;4.40;;;;;;;7.15;87.54;99933.51;109009;1253;70452;-71
2023/04/25 00:13:26;;;;;;;10.80;5.00;;;;;;;7.16;87.65;99934.99;109266;1253;72927;-70
2023/04/25 00:15:53;;;;;;;12.90;4.80;;;;;;;7.17;87.72;99936.66;109171;1254;61842;-70
2023/04/25 00:18:20;;;;;;;9.80;4.60;;;;;;;7.15;87.46;99940.59;109128;1252;61765;-70
2023/04/25 00:20:47;;;;;;;8.90;4.40;;;;;;;7.14;87.39;99935.96;109223;1254;73378;-70
2023/04/25 00:23:18;;;;;;;11.10;4.20;;;;;;;7.11;87.44;99938.14;109174;1254;69990;-71
2023/04/25 00:25:46;;;;;;;12.20;4.80;;;;;;;7.13;87.27;99936.05;109247;1254;72455;-71
2023/04/25 00:28:13;;;;;;;7.80;4.30;;;;;;;7.10;87.32;99943.23;109256;1253;60832;-71
2023/04/25 00:30:40;;;;;;;8.90;3.90;;;;;;;7.09;87.15;99937.91;109194;1254;59310;-71
2023/04/25 00:33:07;;;;;;;9.70;4.80;;;;;;;7.09;87.07;99937.23;109326;1253;74432;-71
2023/04/25 00:35:34;;;;;;;11.70;4.50;;;;;;;7.08;86.70;99937.45;109315;1253;71015;-70
2023/04/25 00:38:01;;;;;;;12.40;4.40;;;;;;;7.09;86.49;99937.75;109167;1253;72972;-71
2023/04/25 00:40:28;;;;;;;11.40;3.40;;;;;;;7.11;86.68;99942.83;109016;1253;60392;-70
2023/04/25 00:42:55;;;;;;;9.40;3.70;;;;;;;7.12;86.48;99938.59;109164;1253;60041;-71
2023/04/25 00:45:25;;;;;;;10.60;3.90;;;;;;;7.16;86.32;99934.53;109307;1254;74736;-69
2023/04/25 00:47:51;;;;;;;11.10;4.10;;;;;;;7.19;86.57;99934.90;109032;1254;70919;-69
2023/04/25 00:50:18;;;;;;;12.60;4.10;;;;;;;7.18;86.00;99934.85;109156;1254;71131;-70
2023/04/25 00:52:45;;;;;;;8.20;3.90;;;;;;;7.17;85.77;99929.52;109164;1253;60440;-70
2023/04/25 00:55:13;;;;;;;10.00;3.80;;;;;;;7.16;85.84;99935.05;109306;1253;59061;-70
2023/04/25 00:57:40;;;;;;;10.10;4.00;;;;;;;7.13;85.46;99933.62;109178;1253;73801;-70
2023/04/25 01:00:09;;;;;;;9.40;4.30;;;;;;;7.14;85.43;99936.08;109194;1253;69236;-70
2023/04/25 01:02:37;;;;;;;10.30;4.30;;;;;;;7.17;85.41;99935.64;109274;1254;72763;-70
2023/04/25 01:05:04;;;;;;;12.20;4.20;;;;;;;7.18;85.35;99934.15;109157;1253;61445;-70
2023/04/25 01:07:31;;;;;;;8.40;4.10;;;;;;;7.20;85.40;99932.97;109275;1254;60114;-70
2023/04/25 01:09:58;;;;;;;9.30;4.00;;;;;;;7.21;85.58;99932.85;109297;1254;72865;-69
2023/04/25 01:12:25;;;;;;;8.20;3.70;;;;;;;7.23;85.07;99931.31;109326;1254;69638;-69
2023/04/25 01:14:52;;;;;;;10.70;4.50;;;;;;;7.25;85.35;99935.77;109210;1252;71998;-69
2023/04/25 01:17:19;;;;;;;10.60;4.70;;;;;;;7.27;85.27;99935.77;109190;1253;61307;-69
2023/04/25 01:19:48;;;;;;;11.70;4.10;;;;;;;7.24;85.02;99937.06;109320;1252;60348;-69
2023/04/25 01:22:15;;;;;;;10.40;4.00;;;;;;;7.22;84.89;99932.91;109141;1258;74421;-69
2023/04/25 01:24:41;;;;;;;9.40;3.70;;;;;;;7.20;85.56;99934.41;109305;1253;71262;-69
2023/04/25 01:27:09;;;;;;;10.80;4.90;;;;;;;7.20;85.51;99925.10;109038;1254;72782;-69
2023/04/25 01:29:36;;;;;;;11.90;4.80;;;;;;;7.21;85.45;99922.58;109182;1252;60388;-69
2023/04/25 01:32:05;;;;;;;9.70;4.20;;;;;;;7.19;85.80;99921.16;109372;1253;60120;-69
2023/04/25 01:34:32;;;;;;;10.30;5.00;;;;;;;7.17;85.73;99920.44;109198;1254;74732;-69
2023/04/25 01:37:01;;;;;;;10.60;4.80;;;;;;;7.15;85.45;99916.66;109147;1254;69705;-69
2023/04/25 01:39:27;;;;;;;12.70;4.90;;;;;;;7.15;85.91;99917.59;109164;1254;71383;-69
2023/04/25 01:41:55;;;;;;;12.50;5.30;;;;;;;7.12;86.10;99922.64;109286;1254;60255;-69
2023/04/25 01:44:23;;;;;;;11.00;4.60;;;;;;;7.10;86.35;99913.19;109173;1254;60249;-70
2023/04/25 01:46:50;;;;;;;10.20;4.90;;;;;;;7.07;86.39;99917.36;109277;1254;73463;-70
2023/04/25 01:49:16;;;;;;;12.00;4.70;;;;;;;7.05;86.84;99917.80;109345;1253;69691;-69
2023/04/25 01:51:44;;;;;;;13.30;5.20;;;;;;;7.02;87.08;99920.25;109180;1258;71521;-70
2023/04/25 01:54:11;;;;;;;10.50;5.00;;;;;;;7.02;87.04;99919.55;109181;1254;59667;-70
2023/04/25 01:56:38;;;;;;;12.30;5.30;;;;;;;6.99;87.40;99928.98;109289;1252;60479;-70
2023/04/25 01:59:05;;;;;;;10.50;5.30;;;;;;;6.97;87.38;99925.17;109174;1254;75309;-70
2023/04/25 02:01:33;;;;;;;13.00;5.20;;;;;;;6.98;87.39;99930.48;109189;1255;70955;-70
2023/04/25 02:03:59;;;;;;;11.90;6.00;;;;;;;7.00;87.84;99931.77;109015;1254;72776;-70
2023/04/25 02:06:27;;;;;;;11.60;5.70;;;;;;;7.00;87.59;99934.36;109182;1253;59088;-70
2023/04/25 02:08:54;;;;;;;13.00;5.50;;;;;;;6.99;87.90;99933.37;109179;1254;59128;-70
2023/04/25 02:11:20;;;;;;;11.10;5.40;;;;;;;7.00;87.84;99938.63;109289;1253;73404;-70
2023/04/25 02:13:47;;;;;;;9.30;5.20;;;;;;;7.00;88.00;99937.02;109220;1254;71231;-70
2023/04/25 02:16:14;;;;;;;10.60;5.30;;;;;;;7.00;88.41;99943.45;109158;1253;70453;-70
2023/04/25 02:18:42;;;;;;;14.60;5.50;;;;;;;6.99;88.53;99941.65;109250;1253;62086;-70
2023/04/25 02:21:08;;;;;;;13.10;5.90;;;;;;;6.98;89.03;99947.48;109341;1253;59616;-70
2023/04/25 02:23:35;;;;;;;9.40;5.40;;;;;;;6.92;89.63;99943.21;109274;1255;73574;-70
2023/04/25 02:26:02;;;;;;;12.20;5.10;;;;;;;6.89;90.83;99943.95;109329;1254;71284;-71
2023/04/25 02:28:30;;;;;;;9.90;4.60;;;;;;;6.84;91.74;99948.79;109277;1254;73861;-71
2023/04/25 02:30:57;;;;;;;9.80;4.30;;;;;;;6.75;92.79;99948.83;109317;1254;60539;-71
2023/04/25 02:33:24;;;;;;;8.70;4.10;;;;;;;6.65;93.06;99955.11;109328;1253;58968;-71
2023/04/25 02:35:51;;;;;;;10.20;4.30;;;;;;;6.57;94.09;99956.63;109103;1253;335823;-72
2023/04/25 02:38:18;;;;;;;9.40;5.10;;;;;;;6.49;95.09;99961.13;109298;1253;72731;-71
2023/04/25 02:40:44;;;;;;;10.40;4.90;;;;;;;6.43;95.96;99956.33;109208;1253;71260;-70
2023/04/25 02:43:11;;;;;;;11.80;5.00;;;;;;;6.38;96.41;99962.76;109310;1253;58864;-70
2023/04/25 02:45:38;;;;;;;9.00;4.40;;;;;;;6.31;96.52;99966.47;109195;1254;60112;-70
2023/04/25 02:48:05;;;;;;;10.40;4.40;;;;;;;6.27;96.75;99972.73;109053;1253;74117;-70
2023/04/25 02:50:32;;;;;;;10.10;4.80;;;;;;;6.25;96.92;99975.58;109317;1254;69906;-70
2023/04/25 02:52:59;;;;;;;10.80;4.30;;;;;;;6.20;96.74;99975.86;109090;1254;71475;-70
2023/04/25 02:55:26;;;;;;;10.10;4.40;;;;;;;6.20;96.70;99979.25;109153;1255;60923;-70
2023/04/25 02:57:55;;;;;;;13.00;5.20;;;;;;;6.20;97.03;99987.15;109301;1252;60103;-69
2023/04/25 03:00:22;;;;;;;14.10;4.30;;;;;;;6.21;95.89;99986.85;109219;1252;73130;-69
2023/04/25 03:02:49;;;;;;;15.30;4.10;;;;;;;6.18;92.97;99987.17;109224;1254;69248;-69
2023/04/25 03:05:25;;;;;;;10.00;3.30;;;;;;;6.16;92.30;99984.91;109291;1253;71137;-69
2023/04/25 03:07:51;;;;;;;10.70;3.80;;;;;;;6.17;92.16;99984.17;109166;1254;59654;-70
2023/04/25 03:10:19;;;;;;;13.80;3.90;;;;;;;6.16;91.99;99983.17;109141;1253;58432;-67
2023/04/25 03:12:45;;;;;;;14.80;4.30;;;;;;;6.13;91.66;99988.53;109310;1253;74993;-68
2023/04/25 03:15:12;;;;;;;16.00;4.10;;;;;;;6.12;91.54;99988.10;109218;1253;70923;-68
2023/04/25 03:17:39;;;;;;;13.80;3.80;;;;;;;6.11;91.61;99995.92;109317;1253;71327;-67
2023/04/25 03:20:08;;;;;;;15.20;4.50;;;;;;;6.09;91.11;99988.27;109268;1252;61314;-68
2023/04/25 03:22:35;;;;;;;13.80;3.80;;;;;;;6.09;91.27;99991.45;109326;1254;59082;-67
2023/04/25 03:25:02;;;;;;;15.50;4.00;;;;;;;6.08;91.29;99987.90;109204;1253;73341;-67
2023/04/25 03:27:29;;;;;;;19.30;4.50;;;;;;;6.07;91.20;99994.95;109363;1253;69725;-68
2023/04/25 03:29:56;;;;;;;15.60;3.90;;;;;;;6.07;91.27;99999.36;109195;1253;71540;-68
2023/04/25 03:32:23;;;;;;;14.40;3.70;;;;;;;6.09;91.38;99997.08;109135;1255;59672;-67
2023/04/25 03:34:49;;;;;;;14.60;4.40;;;;;;;6.11;91.39;99996.95;109250;1254;60389;-68
2023/04/25 03:37:16;;;;;;;16.90;4.30;;;;;;;6.11;91.69;99999.06;109360;1254;74339;-68
2023/04/25 03:39:43;;;;;;;15.70;4.50;;;;;;;6.12;91.61;100001.07;109195;1254;71123;-69
2023/04/25 03:42:10;;;;;;;17.60;3.90;;;;;;;6.15;91.53;100008.41;109097;1254;72694;-69
2023/04/25 03:44:37;;;;;;;15.80;4.10;;;;;;;6.15;91.46;100019.27;109125;1254;60967;-69
2023/04/25 03:47:04;;;;;;;15.70;4.10;;;;;;;6.16;91.43;100022.14;109267;1255;60038;-68
2023/04/25 03:49:32;;;;;;;15.00;4.30;;;;;;;6.16;91.52;100023.48;109314;1253;72193;-69
2023/04/25 03:52:00;;;;;;;14.20;3.70;;;;;;;6.15;91.19;100024.71;109196;1254;70911;-70
2023/04/25 03:54:27;;;;;;;15.00;3.70;;;;;;;6.16;91.25;100025.99;109268;1254;70468;-69
2023/04/25 03:56:54;;;;;;;16.70;4.40;;;;;;;6.14;90.85;100034.98;109286;1254;59625;-70
2023/04/25 03:59:20;;;;;;;12.80;3.50;;;;;;;6.13;90.41;100033.10;109218;1254;59092;-69
2023/04/25 04:01:47;;;;;;;14.70;4.10;;;;;;;6.14;90.61;100037.94;109337;1254;74665;-69
2023/04/25 04:04:14;;;;;;;18.30;4.00;;;;;;;6.16;90.51;100038.54;109280;1252;71546;-69
2023/04/25 04:06:42;;;;;;;16.10;3.90;;;;;;;6.16;90.10;100039.05;109330;1254;71297;-69
2023/04/25 04:09:10;;;;;;;16.60;4.20;;;;;;;6.16;90.00;100042.19;109340;1254;60473;-69
2023/04/25 04:11:38;;;;;;;16.80;4.40;;;;;;;6.15;89.50;100044.88;109297;1253;59119;-69
2023/04/25 04:14:05;;;;;;;18.30;4.10;;;;;;;6.11;88.41;100049.30;109190;1254;74775;-70
2023/04/25 04:16:32;;;;;;;14.60;3.70;;;;;;;6.11;88.35;100047.58;109198;1254;69962;-69
2023/04/25 04:19:00;;;;;;;15.20;3.50;;;;;;;6.12;88.31;100050.25;109173;1254;71474;-69
2023/04/25 04:21:27;;;;;;;18.20;4.00;;;;;;;6.13;87.66;100051.52;109290;1253;60797;-69
2023/04/25 04:23:54;;;;;;;16.80;4.00;;;;;;;6.14;87.68;100054.98;109082;1253;59059;-69
2023/04/25 04:26:24;;;;;;;12.50;3.50;;;;;;;6.16;87.51;100057.50;109169;1254;74501;-69
2023/04/25 04:28:51;;;;;;;17.20;4.00;;;;;;;6.18;87.25;100053.75;109185;1254;71746;-69
2023/04/25 04:31:19;;;;;;;11.00;3.00;;;;;;;6.20;86.91;100061.22;109201;1253;71413;-69
2023/04/25 04:33:47;;;;;;;17.00;3.70;;;;;;;6.18;85.53;100062.89;109270;1253;59695;-69
2023/04/25 04:36:15;;;;;;;18.90;4.00;;;;;;;6.20;85.35;100062.34;109162;1253;60601;-68
2023/04/25 04:38:42;;;;;;;14.40;3.90;;;;;;;6.23;85.65;100065.97;109079;1254;74650;-76
2023/04/25 04:41:09;;;;;;;18.30;4.00;;;;;;;6.26;85.09;100067.62;109316;1253;70102;-76
2023/04/25 04:43:36;;;;;;;14.50;3.90;;;;;;;6.31;84.97;100072.30;109025;1252;71491;-76
2023/04/25 04:46:03;;;;;;;14.60;3.00;;;;;;;6.35;84.59;100074.05;109005;1252;60525;-76
2023/04/25 04:48:34;;;;;;;22.00;4.70;;;;;;;6.37;84.13;100078.02;109298;1253;58992;-76
2023/04/25 04:51:01;;;;;;;15.30;3.70;;;;;;;6.37;83.05;100083.87;109068;1254;74364;-76
2023/04/25 04:53:28;;;;;;;12.90;3.80;;;;;;;6.39;83.09;100085.89;109305;1254;70926;-75
2023/04/25 04:55:54;;;;;;;19.10;3.70;;;;;;;6.42;83.31;100087.03;109310;1253;72687;-76
2023/04/25 04:58:21;;;;;;;15.50;3.10;;;;;;;6.43;82.65;100087.92;109285;1254;59453;-75
2023/04/25 05:00:48;;;;;;;12.90;3.20;;;;;;;6.45;82.59;100091.75;109175;1254;58982;-75
2023/04/25 05:03:15;;;;;;;13.60;3.50;;;;;;;6.47;82.54;100094.23;109237;1254;74186;-74
2023/04/25 05:05:42;;;;;;;21.60;4.20;;;;;;;6.50;81.62;100097.59;109255;1254;70996;-73
2023/04/25 05:08:09;;;;;;;16.00;3.80;;;;;;;6.50;80.88;100101.91;109100;1253;72020;-72
2023/04/25 05:10:36;;;;;;;17.00;3.80;;;;;;;6.52;80.52;100106.09;109189;1253;59240;-71
2023/04/25 05:13:03;;;;;;;15.40;3.10;;;;;;;6.52;79.12;100111.39;108967;1258;60002;-71
2023/04/25 05:15:29;;;;;;;21.10;3.90;;;;;;;6.50;78.11;100118.40;109281;1253;73124;-72
2023/04/25 05:17:56;;;;;;;16.20;3.80;;;;;;;6.53;78.33;100116.92;109295;1254;69992;-72
2023/04/25 05:20:23;;;;;;;12.50;3.10;;;;;;;6.57;78.22;100120.41;109092;1254;71631;-73
2023/04/25 05:22:50;;;;;;;15.80;3.30;;;;;;;6.56;77.94;100125.46;109317;1254;59759;-73
2023/04/25 05:25:17;;;;;;;15.80;3.50;;;;;;;6.58;77.85;100114.81;109344;1253;59747;-73
2023/04/25 05:27:44;;;;;;;16.40;3.30;;;;;;;6.55;77.28;100125.13;109180;1252;73174;-72
2023/04/25 05:30:11;;;;;;;15.70;3.00;;;;;;;6.59;77.23;100120.48;109164;1253;70116;-73
2023/04/25 05:32:38;;;;;;;14.60;3.50;;;;;;;6.62;76.82;100119.02;109307;1252;71670;-72
2023/04/25 05:35:06;;;;;;;14.80;3.30;;;;;;;6.67;77.04;100125.96;109210;1253;61082;-72
2023/04/25 05:37:33;;;;;;;15.40;4.00;;;;;;;6.76;76.32;100127.08;109215;1254;59248;-73
2023/04/25 05:40:00;;;;;;;18.00;3.30;;;;;;;6.84;75.66;100130.81;109164;1254;73667;-73
2023/04/25 05:42:27;;;;;;;12.70;2.90;;;;;;;6.88;74.21;100134.20;109313;1254;70823;-72
2023/04/25 05:44:54;;;;;;;23.20;3.60;;;;;;;6.94;74.43;100137.30;109318;1254;73000;-72
2023/04/25 05:47:21;;;;;;;17.70;3.40;;;;;;;7.02;73.99;100135.30;109367;1253;59782;-72
2023/04/25 05:49:48;;;;;;;11.40;2.70;;;;;;;7.09;73.69;100138.02;109179;1252;59361;-72
2023/04/25 05:52:15;;;;;;;13.40;2.80;;;;;;;7.12;72.96;100147.52;109143;1254;74350;-72
2023/04/25 05:54:41;;;;;;;18.10;3.70;;;;;;;7.14;72.09;100143.08;109365;1252;69660;-71
2023/04/25 05:57:08;;;;;;;12.50;2.70;;;;;;;7.13;71.24;100148.45;109199;1254;72497;-71
2023/04/25 05:59:35;;;;;;;15.00;3.00;;;;;;;7.13;70.53;100150.79;109262;1253;59932;-71
2023/04/25 06:02:02;;;;;;;10.30;2.70;;;;;;;7.10;68.97;100158.14;109325;1252;59422;-71
2023/04/25 06:04:29;;;;;;;13.70;2.90;;;;;;;7.08;68.85;100157.98;109257;1254;73369;-71
2023/04/25 06:06:56;;;;;;;16.90;3.40;;;;;;;7.12;69.50;100161.77;109392;1253;71194;-71
2023/04/25 06:09:22;;;;;;;21.70;4.00;;;;;;;7.21;68.36;100165.23;109376;1253;72364;-72
2023/04/25 06:11:49;;;;;;;12.20;3.10;;;;;;;7.27;67.64;100166.11;109225;1254;59935;-72
2023/04/25 06:14:16;;;;;;;12.30;3.20;;;;;;;7.36;68.24;100170.78;109370;1253;60511;-71
2023/04/25 06:16:43;;;;;;;12.50;2.90;;;;;;;7.38;67.80;100177.23;109378;1254;74427;-71
2023/04/25 06:19:09;;;;;;;11.40;2.70;;;;;;;7.38;66.27;100176.42;109357;1254;70907;-72
2023/04/25 06:21:36;;;;;;;10.40;2.30;;;;;;;7.39;67.14;100180.71;109271;1253;70760;-72
2023/04/25 06:24:03;;;;;;;10.40;2.70;;;;;;;7.34;65.83;100186.78;109345;1253;60890;-72
2023/04/25 06:26:30;;;;;;;15.00;3.20;;;;;;;7.32;65.85;100184.34;109307;1253;59328;-73
2023/04/25 06:28:57;;;;;;;12.90;3.00;;;;;;;7.37;67.03;100186.68;109261;1253;74585;-72
2023/04/25 06:31:25;;;;;;;12.00;2.50;;;;;;;7.45;67.56;100185.88;109256;1254;69700;-71
2023/04/25 06:33:54;;;;;;;14.50;2.90;;;;;;;7.45;67.15;100188.98;109300;1253;72486;-72
2023/04/25 06:36:25;;;;;;;11.80;2.70;;;;;;;7.55;66.82;100190.02;109245;1253;62106;-72
2023/04/25 06:38:52;;;;;;;12.80;2.70;;;;;;;7.67;67.41;100187.91;109348;1253;58932;-72
2023/04/25 06:41:19;;;;;;;15.90;3.00;;;;;;;7.85;68.71;100185.14;109356;1253;73815;-72
2023/04/25 06:43:46;;;;;;;11.80;2.90;;;;;;;8.02;69.00;100188.06;109242;1253;71792;-72
2023/04/25 06:46:13;;;;;;;11.70;3.00;;;;;;;8.10;68.69;100188.75;109390;1252;74051;-72
2023/04/25 06:48:39;;;;;;;11.00;2.80;;;;;;;8.02;64.32;100195.58;109218;1254;59971;-72
2023/04/25 06:51:06;;;;;;;13.80;3.00;;;;;;;7.90;65.39;100190.17;109396;1252;59474;-72
2023/04/25 06:53:33;;;;;;;11.00;2.90;;;;;;;7.92;66.67;100194.39;109202;1254;73139;-72
2023/04/25 06:56:00;;;;;;;15.20;2.70;;;;;;;7.90;67.09;100194.80;109220;1254;72215;-72
2023/04/25 06:58:27;;;;;;;13.70;2.60;;;;;;;7.87;67.15;100202.19;109111;1252;73231;-72
2023/04/25 07:00:54;;;;;;;12.80;3.20;;;;;;;7.81;64.68;100206.20;109217;1253;61147;-72
2023/04/25 07:03:21;;;;;;;14.60;2.90;;;;;;;7.83;65.83;100196.63;109348;1253;58900;-72
2023/04/25 07:05:48;;;;;;;16.60;3.50;;;;;;;7.81;65.34;100198.94;109129;1253;73475;-72
2023/04/25 07:08:15;;;;;;;12.40;2.90;;;;;;;7.98;64.88;100202.41;109347;1253;70995;-72
2023/04/25 07:10:42;;;;;;;12.60;2.90;;;;;;;8.21;66.11;100201.76;109340;1253;71731;-72
2023/04/25 07:13:09;;;;;;;13.60;3.30;;;;;;;8.41;65.06;100198.23;109351;1252;59678;-72
2023/04/25 07:15:35;;;;;;;10.70;2.40;;;;;;;8.50;64.34;100206.27;109067;1252;60473;-72
2023/04/25 07:18:02;;;;;;;6.90;2.30;;;;;;;8.56;63.43;100208.45;109201;1254;73134;-72
2023/04/25 07:20:30;;;;;;;11.40;2.40;;;;;;;8.48;63.13;100210.71;109414;1253;71042;-72
2023/04/25 07:22:57;;;;;;;12.70;2.80;;;;;;;8.40;63.04;100212.11;109395;1253;70224;-72
2023/04/25 07:25:24;;;;;;;9.60;2.80;;;;;;;8.37;61.97;100215.26;109234;1253;60913;-72
2023/04/25 07:27:51;;;;;;;10.30;2.50;;;;;;;8.31;62.14;100216.80;109414;1253;60050;-72
2023/04/25 07:30:18;;;;;;;12.10;2.70;;;;;;;8.15;63.75;100215.04;109331;1252;75423;-72
2023/04/25 07:32:45;;;;;;;8.60;2.30;;;;;;;8.08;64.32;100220.39;109189;1254;69622;-72
2023/04/25 07:35:12;;;;;;;10.80;2.40;;;;;;;8.03;65.12;100215.73;109401;1253;71530;-72
2023/04/25 07:37:39;;;;;;;9.70;2.20;;;;;;;7.97;64.79;100229.08;109370;1253;59118;-73
2023/04/25 07:40:07;;;;;;;12.90;2.80;;;;;;;7.87;65.39;100226.09;109228;1253;59109;-72
2023/04/25 07:42:35;;;;;;;13.30;3.20;;;;;;;7.84;66.31;100231.90;109411;1253;74250;-72
2023/04/25 07:45:02;;;;;;;9.00;2.80;;;;;;;7.78;64.40;100237.13;109272;1253;71220;-72
2023/04/25 07:47:29;;;;;;;13.20;3.20;;;;;;;7.74;65.19;100239.25;109337;1253;71267;-72
2023/04/25 07:49:57;;;;;;;12.70;2.30;;;;;;;7.81;64.79;100245.98;109112;1253;59661;-72
2023/04/25 07:52:24;;;;;;;9.50;2.40;;;;;;;7.86;63.64;100246.50;109307;1252;59353;-72
2023/04/25 07:54:51;;;;;;;11.30;2.70;;;;;;;7.86;63.27;100247.36;109267;1253;75905;-73
2023/04/25 07:57:19;;;;;;;8.70;2.20;;;;;;;7.88;63.24;100250.61;109410;1252;70420;-73
2023/04/25 07:59:46;;;;;;;9.60;1.90;;;;;;;7.96;62.90;100258.23;109087;1253;72446;-72
2023/04/25 08:02:13;;;;;;;10.00;2.10;;;;;;;7.96;61.93;100262.98;109214;1254;60806;-72
2023/04/25 08:04:40;;;;;;;11.80;2.40;;;;;;;8.09;62.10;100249.55;109426;1252;60032;-72
2023/04/25 08:07:07;;;;;;;8.30;2.10;;;;;;;8.29;62.49;100251.40;109358;1253;72550;-72
2023/04/25 08:09:36;;;;;;;11.30;2.40;;;;;;;8.42;62.15;100259.92;109217;1254;69945;-72
2023/04/25 08:12:03;;;;;;;9.30;2.20;;;;;;;8.45;60.81;100259.59;109238;1252;71479;-73
2023/04/25 08:14:35;;;;;;;7.60;1.70;;;;;;;8.51;59.64;100269.98;109353;1253;59417;-72
2023/04/25 08:17:05;;;;;;;8.70;2.20;;;;;;;8.46;58.00;100261.89;109390;1253;60650;-72
2023/04/25 08:19:32;;;;;;;6.50;1.60;;;;;;;8.52;57.90;100269.14;109388;1253;74985;-72
2023/04/25 08:21:59;;;;;;;10.20;2.20;;;;;;;8.59;55.54;100265.33;109288;1253;70028;-73
2023/04/25 08:24:26;;;;;;;15.20;2.50;;;;;;;8.69;57.99;100257.73;109294;1254;70807;-73
2023/04/25 08:26:53;;;;;;;10.40;2.20;;;;;;;8.76;57.17;100262.95;109324;1253;58981;-72
2023/04/25 08:29:20;;;;;;;5.50;1.70;;;;;;;8.85;56.36;100262.92;109138;1253;59150;-72
2023/04/25 08:31:47;;;;;;;6.20;2.00;;;;;;;8.85;55.69;100273.59;109372;1253;74426;-72
2023/04/25 08:34:15;;;;;;;8.20;2.10;;;;;;;8.82;55.97;100275.67;109409;1253;72171;-72
2023/04/25 08:36:42;;;;;;;7.10;1.60;;;;;;;8.93;56.30;100277.20;109139;1252;71170;-72
2023/04/25 08:39:08;;;;;;;5.90;1.70;;;;;;;9.05;54.19;100283.04;109240;1253;59310;-73
2023/04/25 08:41:36;;;;;;;9.40;2.00;;;;;;;9.24;53.90;100277.23;109271;1253;60049;-72
2023/04/25 08:44:05;;;;;;;6.70;1.60;;;;;;;9.48;54.19;100282.59;109309;1252;74654;-72
2023/04/25 08:46:32;;;;;;;8.30;2.00;;;;;;;9.64;53.81;100279.45;109370;1252;72023;-72
2023/04/25 08:49:02;;;;;;;6.70;1.70;;;;;;;9.73;53.43;100275.38;109289;1253;72742;-73
2023/04/25 08:51:32;;;;;;;8.00;1.80;;;;;;;9.71;53.37;100290.09;109250;1253;59112;-72
2023/04/25 08:54:13;;;;;;;8.10;2.10;;;;;;;9.58;53.21;100295.91;109162;1252;58891;-72
2023/04/25 08:56:47;;;;;;;7.50;1.60;;;;;;;9.50;52.21;100299.30;109258;1254;74485;-72
2023/04/25 08:59:14;;;;;;;7.90;1.70;;;;;;;9.44;52.61;100299.24;109301;1254;71403;-73
2023/04/25 09:01:41;;;;;;;5.80;1.60;;;;;;;9.34;52.42;100300.78;109322;1253;72315;-72
2023/04/25 09:04:08;;;;;;;9.20;1.60;;;;;;;9.26;53.05;100309.64;109355;1253;60385;-72
2023/04/25 09:06:35;;;;;;;9.60;1.70;;;;;;;9.09;52.24;100307.01;109384;1253;59225;-73
2023/04/25 09:09:07;;;;;;;9.10;1.90;;;;;;;8.95;53.64;100308.73;109261;1252;73694;-72
2023/04/25 09:11:36;;;;;;;9.50;1.80;;;;;;;8.93;54.47;100308.08;109394;1253;69497;-72
2023/04/25 09:14:15;;;;;;;5.90;1.40;;;;;;;9.03;55.18;100312.06;109154;1254;72871;-72
2023/04/25 09:16:57;;;;;;;9.00;1.80;;;;;;;8.99;53.83;100319.77;109348;1253;59056;-72
2023/04/25 09:19:45;;;;;;;8.50;2.00;;;;;;;9.06;53.72;100327.39;109330;1253;59531;-72
2023/04/25 09:22:12;;;;;;;6.80;1.70;;;;;;;9.11;53.88;100328.80;109418;1253;74960;-72
2023/04/25 09:24:41;;;;;;;7.10;1.90;;;;;;;9.22;53.93;100331.27;109384;1252;69412;-72
2023/04/25 09:27:11;;;;;;;6.20;1.50;;;;;;;9.35;54.33;100334.15;109118;1253;72792;-72
2023/04/25 09:29:40;;;;;;;9.10;1.80;;;;;;;9.34;52.46;100343.95;109081;1252;59362;-72
2023/04/25 09:32:22;;;;;;;6.20;1.70;;;;;;;9.31;52.36;100340.41;109317;1253;58974;-71
2023/04/25 09:34:50;;;;;;;6.00;1.20;;;;;;;9.44;52.75;100339.13;109150;1253;74065;-72
2023/04/25 09:37:24;;;;;;;7.10;1.40;;;;;;;9.65;50.51;100353.88;109258;1252;70358;-72
2023/04/25 09:39:54;;;;;;;4.40;1.20;;;;;;;9.59;46.03;100356.50;109219;1253;71524;-72
2023/04/25 09:42:26;;;;;;;5.00;1.20;;;;;;;9.60;45.88;100356.55;109222;1253;59182;-72
2023/04/25 09:44:55;;;;;;;6.40;1.40;;;;;;;9.58;45.75;100362.05;109210;1253;60016;-71
2023/04/25 09:47:25;;;;;;;7.90;1.30;;;;;;;9.51;45.74;100349.71;109225;1254;73604;-71
2023/04/25 09:49:53;;;;;;;5.60;1.20;;;;;;;9.50;46.14;100348.88;109201;1252;71547;-72
2023/04/25 09:52:22;;;;;;;6.10;1.00;;;;;;;9.55;46.45;100347.19;109199;1253;71588;-72
2023/04/25 09:54:52;;;;;;;3.50;1.10;;;;;;;9.65;44.20;100348.70;109126;1253;59464;-72
2023/04/25 09:57:20;;;;;;;4.70;1.40;;;;;;;9.73;44.92;100345.54;109336;1253;60969;-73
2023/04/25 09:59:52;;;;;;;3.40;1.00;;;;;;;9.82;44.84;100357.82;109169;1254;74849;-72
2023/04/25 10:02:25;;;;;;;5.30;1.00;;;;;;;9.83;44.79;100350.35;109162;1254;70096;-72
2023/04/25 10:04:54;;;;;;;6.00;1.10;;;;;;;9.72;43.39;100369.10;109277;1252;72640;-72
2023/04/25 10:07:29;;;;;;;5.30;1.00;;;;;;;9.83;43.26;100349.73;109254;1252;59158;-72
2023/04/25 10:10:04;;;;;;;5.00;1.00;;;;;;;10.14;44.25;100354.54;109146;1254;59105;-72
2023/04/25 10:12:32;;;;;;;4.10;1.50;;;;;;;10.15;43.66;100361.30;109127;1253;75874;-72
2023/04/25 10:15:00;;;;;;;3.60;1.10;;;;;;;10.09;43.56;100362.25;109179;1252;69797;-72
2023/04/25 10:17:27;;;;;;;5.30;1.20;;;;;;;10.15;45.12;100355.76;109406;1252;71498;-72
2023/04/25 10:19:56;;;;;;;6.40;1.40;;;;;;;10.40;44.65;100361.23;109349;1254;59508;-73
2023/04/25 10:22:30;;;;;;;8.10;1.40;;;;;;;10.45;43.99;100359.23;109243;1253;60380;-73
2023/04/25 10:24:58;;;;;;;5.00;1.10;;;;;;;10.34;44.26;100366.88;109258;1253;73728;-73
2023/04/25 10:27:27;;;;;;;3.80;1.30;;;;;;;10.25;43.98;100367.94;109174;1252;69930;-73
2023/04/25 10:30:00;;;;;;;3.80;1.10;;;;;;;10.12;43.86;100371.20;109196;1252;71756;-72
2023/04/25 10:32:27;;;;;;;5.90;1.40;;;;;;;9.94;45.38;100378.21;109353;1253;58969;-72
2023/04/25 10:34:57;;;;;;;8.00;1.10;;;;;;;9.85;46.29;100383.85;109413;1253;60135;-72
2023/04/25 10:37:24;;;;;;;4.80;1.30;;;;;;;9.58;46.54;100397.95;109377;1253;73129;-72
2023/04/25 10:39:53;;;;;;;3.80;1.00;;;;;;;9.50;47.18;100390.09;109238;1254;71372;-72
2023/04/25 10:42:19;;;;;;;8.90;1.70;;;;;;;9.38;48.07;100389.29;109321;1253;72705;-72
2023/04/25 10:45:02;;;;;;;6.80;1.70;;;;;;;9.36;48.37;100387.98;109373;1253;59383;-72
2023/04/25 10:47:36;;;;;;;6.90;1.10;;;;;;;9.31;48.77;100401.84;109405;1253;58973;-72
2023/04/25 10:50:08;;;;;;;5.00;1.10;;;;;;;9.25;48.31;100401.98;109122;1253;73462;-72
2023/04/25 10:52:38;;;;;;;6.60;1.40;;;;;;;9.21;49.40;100402.80;109041;1252;71156;-72
2023/04/25 10:55:05;;;;;;;5.10;1.30;;;;;;;9.22;48.96;100412.29;109214;1253;72558;-72
2023/04/25 10:57:45;;;;;;;7.30;1.50;;;;;;;9.23;48.53;100413.38;109216;1253;59852;-72
2023/04/25 11:00:18;;;;;;;3.80;0.90;;;;;;;9.25;48.04;100411.42;109341;1253;60710;-71
2023/04/25 11:03:03;;;;;;;8.40;1.30;;;;;;;9.35;48.53;100401.84;109299;1253;75122;-71
2023/04/25 11:05:34;;;;;;;7.60;1.40;;;;;;;9.58;48.62;100396.70;109447;1253;71008;-73
2023/04/25 11:08:27;;;;;;;10.10;1.50;;;;;;;9.79;48.36;100400.16;109348;1253;71434;-73
2023/04/25 11:10:54;;;;;;;4.00;1.20;;;;;;;9.93;47.08;100412.77;109200;1253;59364;-73
2023/04/25 11:13:22;;;;;;;3.50;1.40;;;;;;;9.97;46.73;100407.92;109293;1253;60181;-73
2023/04/25 11:15:51;;;;;;;7.70;1.60;;;;;;;10.01;46.61;100411.33;109255;1252;72666;-73
2023/04/25 11:18:40;;;;;;;7.40;1.50;;;;;;;10.14;46.29;100414.77;109158;1254;71494;-73
2023/04/25 11:21:07;;;;;;;5.70;1.00;;;;;;;10.38;45.07;100400.50;109276;1252;71822;-73
2023/04/25 11:23:34;;;;;;;6.50;1.20;;;;;;;10.65;44.05;100412.90;109273;1252;59485;-73
2023/04/25 11:26:01;;;;;;;5.50;1.60;;;;;;;10.73;43.36;100420.67;109383;1253;59031;-70